Time;durP1;ratioP1;P1;durP2;ratioP2;P2;SDS_P1;SDS_P2;PMS_P1;PMS_P2;Temp;Humidity;BMP_temperature;BMP_pressure;BME280_temperature;BME280_humidity;BME280_pressure;Samples;Min_cycle;Max_cycle;Signal;HPM_P1;HPM_P2
2023/08/08 00:01:28;;;;;;;6.32;2.72;;;;;;;;;;5098542;28;20103;-76
2023/08/08 00:03:53;;;;;;;6.10;2.78;;;;;;;;;;5096876;28;20031;-75
2023/08/08 00:06:18;;;;;;;8.68;2.85;;;;;;;;;;5092657;28;20112;-76
2023/08/08 00:08:44;;;;;;;5.57;2.72;;;;;;;;;;5098766;28;20028;-75
2023/08/08 00:11:09;;;;;;;5.13;2.65;;;;;;;;;;5087475;28;20516;-76
2023/08/08 00:13:36;;;;;;;4.05;2.70;;;;;;;;;;5098898;28;20024;-76
2023/08/08 00:16:02;;;;;;;6.05;2.60;;;;;;;;;;5091216;28;20024;-76
2023/08/08 00:18:28;;;;;;;5.25;2.35;;;;;;;;;;5090599;28;20023;-76
2023/08/08 00:20:53;;;;;;;5.80;2.45;;;;;;;;;;5091487;28;20027;-76
2023/08/08 00:23:19;;;;;;;4.85;2.40;;;;;;;;;;5086391;28;20035;-76
2023/08/08 00:25:49;;;;;;;6.85;2.28;;;;;;;;;;5089118;28;20095;-76
2023/08/08 00:28:15;;;;;;;6.25;2.72;;;;;;;;;;5091140;28;20016;-76
2023/08/08 00:30:40;;;;;;;8.40;2.50;;;;;;;;;;5096263;28;20024;-76
2023/08/08 00:33:06;;;;;;;5.57;2.45;;;;;;;;;;5085009;28;20488;-75
2023/08/08 00:35:31;;;;;;;4.85;2.40;;;;;;;;;;5092296;28;20020;-76
2023/08/08 00:37:56;;;;;;;5.95;2.60;;;;;;;;;;5093200;28;20027;-76
2023/08/08 00:40:22;;;;;;;6.45;2.20;;;;;;;;;;5095210;28;20024;-76
2023/08/08 00:42:47;;;;;;;5.00;2.13;;;;;;;;;;5096474;28;20353;-75
2023/08/08 00:45:13;;;;;;;6.75;2.47;;;;;;;;;;5094934;28;20027;-75
2023/08/08 00:47:38;;;;;;;5.32;2.67;;;;;;;;;;5094832;28;20050;-76
2023/08/08 00:50:05;;;;;;;6.30;2.53;;;;;;;;;;5094182;28;20016;-76
2023/08/08 00:52:31;;;;;;;6.35;2.42;;;;;;;;;;5095810;28;20035;-76
2023/08/08 00:54:56;;;;;;;7.28;2.60;;;;;;;;;;5094682;28;20388;-76
2023/08/08 00:57:22;;;;;;;5.03;2.30;;;;;;;;;;5094821;28;20020;-77
2023/08/08 00:59:47;;;;;;;4.30;2.22;;;;;;;;;;5083746;28;20543;-76
2023/08/08 01:02:13;;;;;;;4.65;2.38;;;;;;;;;;5089366;28;20024;-76
2023/08/08 01:04:39;;;;;;;6.75;2.97;;;;;;;;;;5094822;28;20036;-87
2023/08/08 01:07:12;;;;;;;5.53;2.22;;;;;;;;;;5092121;28;20055;-85
2023/08/08 01:09:44;;;;;;;5.15;2.47;;;;;;;;;;5094058;28;20421;-87
2023/08/08 01:12:12;;;;;;;6.00;2.40;;;;;;;;;;5092805;28;20020;-86
2023/08/08 01:14:39;;;;;;;4.55;2.22;;;;;;;;;;5093700;28;20017;-86
2023/08/08 01:17:06;;;;;;;6.50;2.53;;;;;;;;;;5094152;28;20103;-86
2023/08/08 01:19:34;;;;;;;3.55;2.35;;;;;;;;;;5094761;28;20073;-85
2023/08/08 01:22:05;;;;;;;4.70;2.30;;;;;;;;;;5094053;28;20073;-87
2023/08/08 01:24:32;;;;;;;6.00;2.30;;;;;;;;;;5091792;28;20020;-87
2023/08/08 01:26:59;;;;;;;9.10;2.67;;;;;;;;;;5104033;28;20035;-87
2023/08/08 01:29:25;;;;;;;6.68;2.25;;;;;;;;;;5086440;28;20031;-85
2023/08/08 01:31:50;;;;;;;5.85;2.38;;;;;;;;;;5094853;28;20024;-86
2023/08/08 01:34:16;;;;;;;6.93;2.38;;;;;;;;;;5089569;28;20033;-86
2023/08/08 01:37:14;;;;;;;5.10;2.28;;;;;;;;;;5089075;28;20024;-87
2023/08/08 01:39:42;;;;;;;7.40;2.72;;;;;;;;;;5071905;28;20081;-86
2023/08/08 01:42:08;;;;;;;9.27;2.70;;;;;;;;;;5083834;28;20032;-86
2023/08/08 01:44:34;;;;;;;5.22;2.47;;;;;;;;;;5087503;28;20016;-87
2023/08/08 01:47:00;;;;;;;6.00;2.55;;;;;;;;;;5092130;28;20023;-85
2023/08/08 01:49:26;;;;;;;5.65;2.30;;;;;;;;;;5089829;28;20031;-87
2023/08/08 01:51:52;;;;;;;4.93;2.30;;;;;;;;;;5085612;28;20029;-85
2023/08/08 01:54:18;;;;;;;5.60;2.30;;;;;;;;;;5094069;28;20032;-85
2023/08/08 01:56:43;;;;;;;7.60;2.50;;;;;;;;;;5084099;28;20080;-86
2023/08/08 01:59:09;;;;;;;6.40;2.40;;;;;;;;;;5093787;28;20036;-85
2023/08/08 02:01:34;;;;;;;5.25;2.38;;;;;;;;;;5092489;28;20020;-86
2023/08/08 02:03:59;;;;;;;5.47;2.45;;;;;;;;;;5093290;28;20165;-86
2023/08/08 02:06:25;;;;;;;5.68;2.08;;;;;;;;;;5094221;28;20024;-85
2023/08/08 02:08:50;;;;;;;7.13;2.65;;;;;;;;;;5094807;28;20024;-85
2023/08/08 02:11:15;;;;;;;7.07;2.55;;;;;;;;;;5083376;28;20043;-86
2023/08/08 02:13:41;;;;;;;6.30;2.63;;;;;;;;;;5093477;28;20062;-75
2023/08/08 02:16:06;;;;;;;7.53;2.42;;;;;;;;;;5089269;28;20128;-74
2023/08/08 02:18:32;;;;;;;5.00;2.35;;;;;;;;;;5092838;28;20486;-75
2023/08/08 02:20:57;;;;;;;5.00;2.45;;;;;;;;;;5093236;28;20025;-75
2023/08/08 02:23:22;;;;;;;6.05;2.33;;;;;;;;;;5087615;28;20024;-74
2023/08/08 02:25:48;;;;;;;6.75;2.42;;;;;;;;;;5072948;28;20044;-75
2023/08/08 02:28:13;;;;;;;3.85;1.95;;;;;;;;;;5085074;28;20024;-74
2023/08/08 02:30:38;;;;;;;9.20;2.70;;;;;;;;;;5086248;28;20008;-75
2023/08/08 02:33:04;;;;;;;7.18;2.63;;;;;;;;;;5080867;28;20068;-75
2023/08/08 02:35:29;;;;;;;5.57;2.47;;;;;;;;;;5092984;28;20076;-74
2023/08/08 02:37:55;;;;;;;6.88;2.35;;;;;;;;;;5093741;28;20028;-75
2023/08/08 02:40:23;;;;;;;6.65;2.63;;;;;;;;;;5092875;28;20097;-75
2023/08/08 02:42:49;;;;;;;5.15;2.53;;;;;;;;;;5096520;28;20020;-75
2023/08/08 02:45:14;;;;;;;6.72;2.70;;;;;;;;;;5089985;28;20149;-74
2023/08/08 02:47:39;;;;;;;5.30;2.53;;;;;;;;;;5094278;28;20024;-75
2023/08/08 02:50:05;;;;;;;5.63;2.72;;;;;;;;;;5093452;28;20027;-74
2023/08/08 02:52:31;;;;;;;6.10;3.00;;;;;;;;;;5093232;28;20032;-75
2023/08/08 02:54:56;;;;;;;5.85;2.63;;;;;;;;;;5088744;28;20036;-75
2023/08/08 02:57:21;;;;;;;9.30;3.60;;;;;;;;;;5093744;28;20030;-75
2023/08/08 02:59:47;;;;;;;7.60;2.70;;;;;;;;;;5092391;28;20122;-74
2023/08/08 03:02:12;;;;;;;8.25;3.00;;;;;;;;;;5092209;28;20020;-74
2023/08/08 03:04:37;;;;;;;6.85;2.60;;;;;;;;;;5094538;28;20028;-74
2023/08/08 03:07:04;;;;;;;4.60;2.95;;;;;;;;;;5092442;28;20112;-75
2023/08/08 03:09:30;;;;;;;6.82;3.05;;;;;;;;;;5092928;28;20043;-74
2023/08/08 03:11:55;;;;;;;6.95;2.90;;;;;;;;;;5091930;28;20024;-75
2023/08/08 03:14:20;;;;;;;9.02;3.28;;;;;;;;;;5092203;28;20020;-74
2023/08/08 03:16:46;;;;;;;5.43;2.60;;;;;;;;;;5091630;28;20471;-75
2023/08/08 03:19:11;;;;;;;7.32;3.30;;;;;;;;;;5088295;28;20028;-74
2023/08/08 03:21:37;;;;;;;5.97;2.70;;;;;;;;;;5066454;28;20484;-76
2023/08/08 03:24:02;;;;;;;5.05;2.88;;;;;;;;;;5091948;28;20077;-74
2023/08/08 03:26:28;;;;;;;6.57;3.10;;;;;;;;;;5091331;28;20020;-75
2023/08/08 03:28:54;;;;;;;5.32;2.95;;;;;;;;;;5091862;28;20507;-74
2023/08/08 03:31:20;;;;;;;7.70;2.78;;;;;;;;;;5085441;28;20012;-74
2023/08/08 03:33:46;;;;;;;8.15;3.10;;;;;;;;;;5081231;28;20028;-75
2023/08/08 03:36:11;;;;;;;5.40;2.90;;;;;;;;;;5090924;28;20024;-76
2023/08/08 03:38:37;;;;;;;5.50;2.53;;;;;;;;;;5080827;28;20368;-75
2023/08/08 03:41:03;;;;;;;5.30;2.80;;;;;;;;;;5091648;28;20035;-75
2023/08/08 03:43:29;;;;;;;8.30;2.95;;;;;;;;;;5078828;28;20024;-75
2023/08/08 03:45:54;;;;;;;8.48;3.50;;;;;;;;;;5091441;28;20109;-74
2023/08/08 03:48:19;;;;;;;9.32;3.10;;;;;;;;;;5090933;28;20044;-75
2023/08/08 03:50:46;;;;;;;6.82;2.80;;;;;;;;;;5091583;28;20123;-74
2023/08/08 03:53:12;;;;;;;8.38;3.17;;;;;;;;;;5087494;28;20082;-75
2023/08/08 03:55:37;;;;;;;6.38;3.15;;;;;;;;;;5091745;28;20052;-74
2023/08/08 03:58:03;;;;;;;10.45;3.60;;;;;;;;;;5092530;28;20022;-75
2023/08/08 04:00:28;;;;;;;8.10;3.72;;;;;;;;;;5091319;28;20016;-75
2023/08/08 04:02:53;;;;;;;13.98;4.00;;;;;;;;;;5085983;28;20074;-74
2023/08/08 04:05:19;;;;;;;6.75;3.10;;;;;;;;;;5097521;28;20020;-76
2023/08/08 04:07:44;;;;;;;6.50;3.20;;;;;;;;;;5092385;28;20466;-74
2023/08/08 04:10:10;;;;;;;7.82;3.78;;;;;;;;;;5090952;28;20396;-76
2023/08/08 04:12:36;;;;;;;6.30;3.38;;;;;;;;;;5084730;28;20089;-75
2023/08/08 04:15:01;;;;;;;6.53;3.67;;;;;;;;;;5098088;28;20027;-74
2023/08/08 04:17:27;;;;;;;7.75;3.42;;;;;;;;;;5088255;28;20030;-75
2023/08/08 04:19:52;;;;;;;6.88;3.35;;;;;;;;;;5091085;28;20407;-74
2023/08/08 04:22:18;;;;;;;6.60;3.40;;;;;;;;;;5079057;28;20024;-75
2023/08/08 04:24:43;;;;;;;7.25;3.50;;;;;;;;;;5078861;28;20123;-74
2023/08/08 04:27:09;;;;;;;8.55;3.72;;;;;;;;;;5089594;28;20031;-74
2023/08/08 04:29:36;;;;;;;7.40;3.22;;;;;;;;;;5090869;28;20541;-75
2023/08/08 04:32:01;;;;;;;11.45;3.83;;;;;;;;;;5087134;28;20029;-74
2023/08/08 04:34:26;;;;;;;8.25;3.78;;;;;;;;;;5088704;28;20085;-85
2023/08/08 04:36:52;;;;;;;7.90;3.60;;;;;;;;;;5092122;28;20103;-84
2023/08/08 04:39:17;;;;;;;8.07;4.05;;;;;;;;;;5089714;28;20078;-85
2023/08/08 04:41:43;;;;;;;11.88;4.22;;;;;;;;;;5088576;28;20115;-84
2023/08/08 04:44:08;;;;;;;9.55;4.13;;;;;;;;;;5091850;28;20095;-85
2023/08/08 04:46:33;;;;;;;8.85;4.18;;;;;;;;;;5080479;28;20012;-86
2023/08/08 04:48:59;;;;;;;8.55;3.40;;;;;;;;;;5091153;28;20074;-85
2023/08/08 04:51:25;;;;;;;10.50;3.72;;;;;;;;;;5079657;28;20085;-85
2023/08/08 04:53:50;;;;;;;6.70;3.42;;;;;;;;;;5104585;28;20488;-85
2023/08/08 04:56:16;;;;;;;7.65;3.78;;;;;;;;;;5086872;28;20016;-85
2023/08/08 04:58:41;;;;;;;9.88;4.38;;;;;;;;;;5111214;28;20016;-86
2023/08/08 05:01:08;;;;;;;10.32;3.83;;;;;;;;;;5090738;28;20039;-84
2023/08/08 05:03:34;;;;;;;8.10;3.85;;;;;;;;;;5090742;28;20028;-85
2023/08/08 05:06:00;;;;;;;8.18;3.58;;;;;;;;;;5089726;28;20021;-85
2023/08/08 05:08:25;;;;;;;9.43;3.80;;;;;;;;;;5088682;28;20031;-85
2023/08/08 05:10:51;;;;;;;9.60;3.85;;;;;;;;;;5083640;28;20427;-86
2023/08/08 05:13:16;;;;;;;8.27;3.95;;;;;;;;;;5089964;28;20028;-85
2023/08/08 05:15:42;;;;;;;8.75;4.10;;;;;;;;;;5089076;28;20151;-84
2023/08/08 05:18:07;;;;;;;10.43;4.65;;;;;;;;;;5086319;28;20466;-85
2023/08/08 05:20:32;;;;;;;10.90;3.90;;;;;;;;;;5094805;28;20030;-83
2023/08/08 05:22:58;;;;;;;8.90;4.45;;;;;;;;;;5095504;28;20034;-85
2023/08/08 05:25:23;;;;;;;10.55;4.32;;;;;;;;;;5077397;28;20032;-84
2023/08/08 05:27:49;;;;;;;8.73;4.40;;;;;;;;;;5095329;28;20023;-84
2023/08/08 05:30:15;;;;;;;10.10;4.28;;;;;;;;;;5093740;28;20074;-85
2023/08/08 05:32:40;;;;;;;7.22;4.05;;;;;;;;;;5094801;28;20027;-85
2023/08/08 05:35:06;;;;;;;9.75;4.72;;;;;;;;;;5093602;28;20027;-85
2023/08/08 05:37:32;;;;;;;7.88;4.03;;;;;;;;;;5095148;28;20024;-85
2023/08/08 05:39:57;;;;;;;9.07;3.85;;;;;;;;;;5093960;28;20047;-85
2023/08/08 05:42:23;;;;;;;8.23;3.65;;;;;;;;;;5092864;28;20019;-86
2023/08/08 05:44:48;;;;;;;10.55;4.45;;;;;;;;;;5093723;28;20024;-76
2023/08/08 05:47:13;;;;;;;9.95;4.30;;;;;;;;;;5092286;28;20538;-75
2023/08/08 05:49:42;;;;;;;5.97;3.45;;;;;;;;;;5091856;28;20107;-75
2023/08/08 05:52:08;;;;;;;11.65;4.30;;;;;;;;;;5097451;28;20043;-75
2023/08/08 05:54:33;;;;;;;10.02;3.97;;;;;;;;;;5100586;28;20383;-75
2023/08/08 05:56:58;;;;;;;9.02;3.50;;;;;;;;;;5093769;28;20024;-75
2023/08/08 05:59:24;;;;;;;11.65;4.13;;;;;;;;;;5091448;28;20110;-75
2023/08/08 06:01:49;;;;;;;9.63;3.92;;;;;;;;;;5088179;28;20093;-75
2023/08/08 06:04:15;;;;;;;9.25;3.88;;;;;;;;;;5094662;28;20020;-75
2023/08/08 06:06:41;;;;;;;9.05;3.97;;;;;;;;;;5093513;28;20042;-75
2023/08/08 06:09:08;;;;;;;8.70;3.70;;;;;;;;;;5088400;28;20031;-75
2023/08/08 06:11:34;;;;;;;8.93;4.03;;;;;;;;;;5085068;28;20430;-75
2023/08/08 06:13:59;;;;;;;8.68;4.05;;;;;;;;;;5093368;28;20024;-76
2023/08/08 06:16:25;;;;;;;6.60;3.55;;;;;;;;;;5087730;28;20111;-75
2023/08/08 06:18:52;;;;;;;7.63;3.30;;;;;;;;;;5088267;28;20472;-75
2023/08/08 06:21:17;;;;;;;9.55;3.97;;;;;;;;;;5093078;28;20024;-75
2023/08/08 06:23:43;;;;;;;8.68;4.63;;;;;;;;;;5098097;28;20027;-75
2023/08/08 06:26:09;;;;;;;8.82;3.72;;;;;;;;;;5085928;28;20023;-75
2023/08/08 06:28:34;;;;;;;8.77;3.65;;;;;;;;;;5103367;28;20031;-75
2023/08/08 06:31:00;;;;;;;8.82;3.53;;;;;;;;;;5088784;28;20031;-75
2023/08/08 06:33:26;;;;;;;10.35;3.78;;;;;;;;;;5084788;28;20020;-76
2023/08/08 06:35:52;;;;;;;7.80;3.33;;;;;;;;;;5085595;28;20032;-75
2023/08/08 06:38:17;;;;;;;9.98;3.47;;;;;;;;;;5086784;28;20024;-75
2023/08/08 06:40:43;;;;;;;6.68;3.40;;;;;;;;;;5079917;28;20073;-76
2023/08/08 06:43:08;;;;;;;10.02;3.63;;;;;;;;;;5094042;28;20028;-75
2023/08/08 06:45:34;;;;;;;7.03;3.20;;;;;;;;;;5085969;28;20021;-75
2023/08/08 06:48:00;;;;;;;8.50;3.45;;;;;;;;;;5081637;28;20063;-75
2023/08/08 06:50:25;;;;;;;7.57;3.17;;;;;;;;;;5088091;28;20031;-74
2023/08/08 06:52:50;;;;;;;7.95;3.28;;;;;;;;;;5091095;28;20043;-75
2023/08/08 06:55:16;;;;;;;6.32;2.80;;;;;;;;;;5088436;28;20024;-88
2023/08/08 06:57:42;;;;;;;9.88;3.10;;;;;;;;;;5093943;28;20019;-87
2023/08/08 07:00:08;;;;;;;7.78;3.00;;;;;;;;;;5092547;28;20032;-86
2023/08/08 07:02:34;;;;;;;7.00;2.60;;;;;;;;;;5093545;28;20020;-88
2023/08/08 07:04:59;;;;;;;7.65;2.72;;;;;;;;;;5092373;28;20016;-88
2023/08/08 07:07:24;;;;;;;9.38;3.42;;;;;;;;;;5093008;28;20023;-90
2023/08/08 07:09:50;;;;;;;5.95;3.03;;;;;;;;;;5090266;28;20093;-88
2023/08/08 07:12:16;;;;;;;7.32;2.95;;;;;;;;;;5091911;28;20475;-88
2023/08/08 07:14:41;;;;;;;6.80;2.85;;;;;;;;;;5085190;28;20480;-88
2023/08/08 07:17:07;;;;;;;7.50;2.60;;;;;;;;;;5072809;28;20032;-88
2023/08/08 07:19:32;;;;;;;7.22;2.42;;;;;;;;;;5082271;28;20471;-88
2023/08/08 07:21:58;;;;;;;8.43;2.50;;;;;;;;;;5093487;28;20020;-89
2023/08/08 07:24:28;;;;;;;6.45;2.65;;;;;;;;;;5093418;28;20471;-87
2023/08/08 07:26:54;;;;;;;6.45;2.25;;;;;;;;;;5091730;28;20035;-88
2023/08/08 07:29:21;;;;;;;4.70;2.40;;;;;;;;;;5087205;28;20015;-87
2023/08/08 07:31:46;;;;;;;4.10;1.92;;;;;;;;;;5085432;28;20020;-90
2023/08/08 07:34:11;;;;;;;5.95;1.83;;;;;;;;;;5093265;28;20077;-89
2023/08/08 07:36:37;;;;;;;5.22;2.10;;;;;;;;;;5091803;28;20100;-89
2023/08/08 07:39:02;;;;;;;4.20;1.85;;;;;;;;;;5091655;28;20012;-88
2023/08/08 07:41:30;;;;;;;6.43;1.65;;;;;;;;;;5093034;28;20548;-86
2023/08/08 07:43:55;;;;;;;7.20;1.80;;;;;;;;;;5091007;28;20036;-89
2023/08/08 07:46:20;;;;;;;5.50;2.03;;;;;;;;;;5091179;28;20495;-89
2023/08/08 07:48:46;;;;;;;4.85;1.90;;;;;;;;;;5092267;28;20028;-89
2023/08/08 07:51:11;;;;;;;7.03;1.90;;;;;;;;;;5090951;28;20107;-88
2023/08/08 07:53:36;;;;;;;4.50;1.80;;;;;;;;;;5091106;28;20055;-88
2023/08/08 07:56:02;;;;;;;3.45;1.83;;;;;;;;;;5089310;28;20055;-89
2023/08/08 07:58:27;;;;;;;8.20;2.20;;;;;;;;;;5088594;28;20395;-83
2023/08/08 08:00:53;;;;;;;5.15;2.10;;;;;;;;;;5089830;28;20078;-87
2023/08/08 08:03:20;;;;;;;5.80;1.88;;;;;;;;;;5091676;28;20036;-88
2023/08/08 08:05:45;;;;;;;5.25;2.00;;;;;;;;;;5087566;28;20129;-75
2023/08/08 08:08:10;;;;;;;5.63;1.88;;;;;;;;;;5089148;28;20094;-74
2023/08/08 08:10:36;;;;;;;3.88;1.70;;;;;;;;;;5090401;28;20077;-75
2023/08/08 08:13:01;;;;;;;5.05;1.52;;;;;;;;;;5084891;28;20391;-75
2023/08/08 08:15:27;;;;;;;4.30;1.63;;;;;;;;;;5087647;28;20034;-75
2023/08/08 08:17:53;;;;;;;3.28;1.40;;;;;;;;;;5083137;28;20020;-75
2023/08/08 08:20:19;;;;;;;4.05;1.73;;;;;;;;;;5085816;28;20099;-74
2023/08/08 08:22:44;;;;;;;4.85;1.60;;;;;;;;;;5090632;28;20028;-75
2023/08/08 08:25:10;;;;;;;2.85;1.13;;;;;;;;;;5092671;28;20483;-75
2023/08/08 08:27:36;;;;;;;3.15;1.15;;;;;;;;;;5090473;28;20016;-75
2023/08/08 08:30:03;;;;;;;2.80;1.10;;;;;;;;;;5092010;28;20019;-74
2023/08/08 08:32:32;;;;;;;3.25;1.20;;;;;;;;;;5092022;28;20494;-75
2023/08/08 08:34:58;;;;;;;3.28;0.95;;;;;;;;;;5085239;28;20024;-74
2023/08/08 08:37:23;;;;;;;4.07;1.40;;;;;;;;;;5092120;28;20403;-74
2023/08/08 08:39:48;;;;;;;2.90;0.95;;;;;;;;;;5090514;28;20024;-75
2023/08/08 08:42:14;;;;;;;2.42;0.93;;;;;;;;;;5098240;28;20422;-74
2023/08/08 08:44:41;;;;;;;1.05;0.80;;;;;;;;;;5086132;28;20107;-75
2023/08/08 08:47:10;;;;;;;3.22;0.85;;;;;;;;;;5081549;28;20016;-74
2023/08/08 08:49:38;;;;;;;3.05;0.80;;;;;;;;;;5076962;28;20471;-75
2023/08/08 08:52:05;;;;;;;1.15;0.70;;;;;;;;;;5092261;28;20111;-75
2023/08/08 08:54:31;;;;;;;4.18;0.98;;;;;;;;;;5093427;28;20039;-74
2023/08/08 08:56:58;;;;;;;3.05;0.90;;;;;;;;;;5095214;28;20032;-75
2023/08/08 08:59:23;;;;;;;3.30;0.90;;;;;;;;;;5084508;28;20028;-75
2023/08/08 09:01:50;;;;;;;2.55;0.80;;;;;;;;;;5095685;28;20391;-75
2023/08/08 09:04:18;;;;;;;0.90;0.65;;;;;;;;;;5094820;28;20437;-76
2023/08/08 09:06:45;;;;;;;1.88;0.70;;;;;;;;;;5095995;28;20024;-76
2023/08/08 09:09:12;;;;;;;2.90;1.10;;;;;;;;;;5090349;28;20016;-76
2023/08/08 09:11:39;;;;;;;5.03;1.02;;;;;;;;;;5079850;28;20027;-74
2023/08/08 09:14:16;;;;;;;2.25;0.90;;;;;;;;;;5096223;28;20027;-84
2023/08/08 09:16:43;;;;;;;4.85;1.20;;;;;;;;;;5079455;28;20025;-85
2023/08/08 09:19:09;;;;;;;4.80;1.30;;;;;;;;;;5083654;28;20383;-85
2023/08/08 09:21:34;;;;;;;2.10;0.90;;;;;;;;;;5094589;28;20024;-83
2023/08/08 09:23:59;;;;;;;1.73;0.70;;;;;;;;;;5095638;28;20132;-84
2023/08/08 09:26:25;;;;;;;1.85;0.90;;;;;;;;;;5095790;28;20031;-85
2023/08/08 09:28:50;;;;;;;3.50;0.73;;;;;;;;;;5094574;28;20484;-84
2023/08/08 09:31:16;;;;;;;3.65;1.08;;;;;;;;;;5093058;28;20441;-84
2023/08/08 09:33:43;;;;;;;2.85;0.90;;;;;;;;;;5094058;28;20058;-85
2023/08/08 09:36:14;;;;;;;2.53;0.85;;;;;;;;;;5095574;28;20034;-84
2023/08/08 09:38:40;;;;;;;5.45;0.70;;;;;;;;;;5093437;28;20016;-83
2023/08/08 09:41:06;;;;;;;1.83;0.93;;;;;;;;;;5094328;28;20031;-84
2023/08/08 09:43:31;;;;;;;3.55;0.90;;;;;;;;;;5095359;28;20023;-84
2023/08/08 09:45:57;;;;;;;4.85;1.00;;;;;;;;;;5093954;28;20092;-85
2023/08/08 09:48:23;;;;;;;4.07;0.80;;;;;;;;;;5093888;28;20031;-85
2023/08/08 09:50:50;;;;;;;2.53;0.93;;;;;;;;;;5094865;28;20528;-85
2023/08/08 09:53:16;;;;;;;4.35;0.90;;;;;;;;;;5094749;28;20577;-84
2023/08/08 09:55:43;;;;;;;3.28;1.20;;;;;;;;;;5094879;28;20039;-84
2023/08/08 09:58:09;;;;;;;3.22;1.00;;;;;;;;;;5093797;28;20023;-84
2023/08/08 10:00:36;;;;;;;3.33;1.15;;;;;;;;;;5094966;28;20371;-86
2023/08/08 10:03:01;;;;;;;3.78;0.90;;;;;;;;;;5091183;28;20035;-84
2023/08/08 10:05:27;;;;;;;2.25;0.88;;;;;;;;;;5086867;28;20016;-84
2023/08/08 10:07:53;;;;;;;3.28;1.05;;;;;;;;;;5081788;28;20031;-85
2023/08/08 10:10:20;;;;;;;4.78;1.10;;;;;;;;;;5093025;28;20426;-85
2023/08/08 10:12:46;;;;;;;2.58;1.17;;;;;;;;;;5090398;28;20028;-85
2023/08/08 10:15:12;;;;;;;2.33;1.33;;;;;;;;;;5090795;28;20089;-85
2023/08/08 10:17:38;;;;;;;2.70;1.00;;;;;;;;;;5090237;28;20020;-86
2023/08/08 10:20:17;;;;;;;3.50;0.90;;;;;;;;;;5090127;28;20035;-83
2023/08/08 10:22:45;;;;;;;3.05;0.93;;;;;;;;;;5090359;28;20579;-85
2023/08/08 10:25:18;;;;;;;3.55;1.48;;;;;;;;;;5093007;28;20540;-75
2023/08/08 10:27:44;;;;;;;2.20;1.10;;;;;;;;;;5090642;28;20433;-75
2023/08/08 10:30:10;;;;;;;3.55;1.20;;;;;;;;;;5099326;28;20020;-77
2023/08/08 10:32:48;;;;;;;3.95;1.10;;;;;;;;;;5087395;28;20036;-75
2023/08/08 10:35:14;;;;;;;4.18;1.10;;;;;;;;;;5086606;28;20016;-75
2023/08/08 10:37:40;;;;;;;3.53;1.30;;;;;;;;;;5092271;28;20042;-75
2023/08/08 10:40:07;;;;;;;1.70;1.00;;;;;;;;;;5090296;28;20025;-75
2023/08/08 10:42:40;;;;;;;7.22;1.23;;;;;;;;;;5085421;28;20052;-75
2023/08/08 10:45:10;;;;;;;2.60;1.10;;;;;;;;;;5085811;28;20107;-76
2023/08/08 10:47:36;;;;;;;2.58;1.00;;;;;;;;;;5091801;28;20161;-75
2023/08/08 10:50:12;;;;;;;1.80;0.93;;;;;;;;;;5093560;28;20099;-76
2023/08/08 10:52:52;;;;;;;3.15;1.20;;;;;;;;;;5086512;28;20020;-75
2023/08/08 10:55:22;;;;;;;1.98;0.98;;;;;;;;;;5081665;28;20360;-76
2023/08/08 10:58:12;;;;;;;2.83;1.00;;;;;;;;;;5091377;28;20383;-76
2023/08/08 11:00:39;;;;;;;2.25;1.00;;;;;;;;;;5093002;28;20391;-75
2023/08/08 11:03:05;;;;;;;1.85;0.95;;;;;;;;;;5082589;28;20123;-76
2023/08/08 11:05:33;;;;;;;2.72;0.90;;;;;;;;;;5092475;28;20523;-76
2023/08/08 11:08:03;;;;;;;2.20;0.95;;;;;;;;;;5091252;28;20440;-76
2023/08/08 11:10:31;;;;;;;1.75;1.10;;;;;;;;;;5096905;28;20024;-76
2023/08/08 11:12:59;;;;;;;1.92;0.98;;;;;;;;;;5085943;28;20017;-76
2023/08/08 11:15:26;;;;;;;3.22;1.42;;;;;;;;;;5081265;28;20020;-76
2023/08/08 11:17:52;;;;;;;2.47;1.00;;;;;;;;;;5092051;28;20020;-76
2023/08/08 11:20:18;;;;;;;2.28;1.25;;;;;;;;;;5093362;28;20111;-75
2023/08/08 11:22:43;;;;;;;1.98;1.10;;;;;;;;;;5092113;28;20166;-76
2023/08/08 11:25:09;;;;;;;4.07;1.17;;;;;;;;;;5090630;28;20031;-75
2023/08/08 11:27:34;;;;;;;2.47;1.20;;;;;;;;;;5082184;28;20016;-76
2023/08/08 11:29:59;;;;;;;3.20;1.42;;;;;;;;;;5091104;28;20365;-76
2023/08/08 11:32:28;;;;;;;2.38;1.10;;;;;;;;;;5084741;28;20039;-76
2023/08/08 11:34:54;;;;;;;4.97;1.55;;;;;;;;;;5091543;28;20031;-76
2023/08/08 11:37:21;;;;;;;2.28;0.98;;;;;;;;;;5092197;28;20072;-75
2023/08/08 11:39:47;;;;;;;3.13;1.05;;;;;;;;;;5091009;28;20479;-76
2023/08/08 11:42:12;;;;;;;3.65;1.02;;;;;;;;;;5091253;28;20058;-76
2023/08/08 11:44:38;;;;;;;1.60;0.80;;;;;;;;;;5093009;28;20073;-76
2023/08/08 11:47:03;;;;;;;1.80;0.90;;;;;;;;;;5093034;28;20020;-76
2023/08/08 11:49:29;;;;;;;3.60;0.80;;;;;;;;;;5091513;28;20463;-76
2023/08/08 11:51:59;;;;;;;2.33;0.80;;;;;;;;;;5091480;28;20085;-76
2023/08/08 11:54:28;;;;;;;1.75;0.73;;;;;;;;;;5096348;28;20081;-76
2023/08/08 11:56:54;;;;;;;2.92;1.10;;;;;;;;;;5092780;28;20039;-77
2023/08/08 11:59:19;;;;;;;1.55;0.80;;;;;;;;;;5087620;28;20024;-76
2023/08/08 12:01:45;;;;;;;1.33;0.68;;;;;;;;;;5092469;28;20063;-76
2023/08/08 12:04:10;;;;;;;2.63;0.90;;;;;;;;;;5091030;28;20135;-76
2023/08/08 12:06:42;;;;;;;2.78;0.80;;;;;;;;;;5091392;28;20028;-76
2023/08/08 12:09:07;;;;;;;2.45;0.60;;;;;;;;;;5090325;28;20055;-76
2023/08/08 12:11:37;;;;;;;1.13;0.60;;;;;;;;;;5091963;28;20048;-76
2023/08/08 12:14:02;;;;;;;5.22;1.50;;;;;;;;;;5069481;28;20119;-76
2023/08/08 12:16:30;;;;;;;2.53;0.80;;;;;;;;;;5091225;28;20115;-76
2023/08/08 12:18:56;;;;;;;1.60;0.70;;;;;;;;;;5098130;28;20031;-76
2023/08/08 12:21:21;;;;;;;2.40;0.57;;;;;;;;;;5091268;28;20024;-77
2023/08/08 12:23:46;;;;;;;1.10;0.70;;;;;;;;;;5088902;28;20532;-76
2023/08/08 12:26:12;;;;;;;1.25;0.80;;;;;;;;;;5089646;28;20020;-76
2023/08/08 12:28:38;;;;;;;1.20;0.63;;;;;;;;;;5086868;28;20057;-76
2023/08/08 12:31:03;;;;;;;1.52;0.65;;;;;;;;;;5092475;28;20460;-77
2023/08/08 12:33:29;;;;;;;1.67;0.80;;;;;;;;;;5088573;28;20428;-76
2023/08/08 12:35:54;;;;;;;2.35;0.70;;;;;;;;;;5096271;28;20055;-76
2023/08/08 12:38:20;;;;;;;2.67;0.88;;;;;;;;;;5090439;28;20398;-76
2023/08/08 12:40:45;;;;;;;1.83;0.70;;;;;;;;;;5084538;28;20016;-76
2023/08/08 12:43:17;;;;;;;1.02;0.60;;;;;;;;;;5090270;28;20030;-76
2023/08/08 12:45:43;;;;;;;2.42;0.60;;;;;;;;;;5086073;28;20459;-89
2023/08/08 12:48:09;;;;;;;1.25;0.50;;;;;;;;;;5087239;28;20471;-88
2023/08/08 12:50:34;;;;;;;3.08;0.50;;;;;;;;;;5087026;28;20022;-88
2023/08/08 12:53:00;;;;;;;1.17;0.60;;;;;;;;;;5089039;28;20040;-87
2023/08/08 12:55:25;;;;;;;1.65;0.75;;;;;;;;;;5082426;28;20103;-88
2023/08/08 12:57:50;;;;;;;1.98;0.60;;;;;;;;;;5083100;28;20054;-90
2023/08/08 13:00:16;;;;;;;3.47;0.73;;;;;;;;;;5087206;28;20055;-89
2023/08/08 13:02:43;;;;;;;2.60;0.68;;;;;;;;;;5093329;28;20024;-90
2023/08/08 13:05:09;;;;;;;0.80;0.60;;;;;;;;;;5081629;28;20028;-89
2023/08/08 13:07:35;;;;;;;2.55;0.70;;;;;;;;;;5087476;28;20033;-89
2023/08/08 13:10:01;;;;;;;2.08;0.80;;;;;;;;;;5091497;28;20035;-89
2023/08/08 13:12:26;;;;;;;2.97;0.80;;;;;;;;;;5088755;28;20065;-89
2023/08/08 13:14:51;;;;;;;1.33;0.70;;;;;;;;;;5080872;28;20101;-88
2023/08/08 13:17:17;;;;;;;2.35;0.90;;;;;;;;;;5088759;28;20456;-90
2023/08/08 13:19:42;;;;;;;1.95;0.80;;;;;;;;;;5090697;28;20028;-90
2023/08/08 13:22:08;;;;;;;3.40;0.80;;;;;;;;;;5082902;28;20024;-90
2023/08/08 13:24:33;;;;;;;2.55;0.82;;;;;;;;;;5082269;28;20476;-88
2023/08/08 13:26:59;;;;;;;3.55;0.90;;;;;;;;;;5079266;28;20073;-89
2023/08/08 13:29:24;;;;;;;2.38;0.98;;;;;;;;;;5076121;28;20032;-89
2023/08/08 13:31:49;;;;;;;1.73;1.00;;;;;;;;;;5087379;28;20020;-89
2023/08/08 13:34:15;;;;;;;3.53;0.80;;;;;;;;;;5091509;28;20024;-89
2023/08/08 13:36:40;;;;;;;2.58;1.00;;;;;;;;;;5083719;28;20040;-89
2023/08/08 13:39:06;;;;;;;2.30;1.10;;;;;;;;;;5096278;28;20067;-87
2023/08/08 13:41:31;;;;;;;2.10;1.02;;;;;;;;;;5092562;28;20020;-89
2023/08/08 13:43:57;;;;;;;1.80;1.00;;;;;;;;;;5080932;28;20073;-88
2023/08/08 13:46:22;;;;;;;1.92;0.90;;;;;;;;;;5096083;28;20035;-88
2023/08/08 13:48:48;;;;;;;2.00;0.95;;;;;;;;;;5096617;28;20089;-88
2023/08/08 13:51:13;;;;;;;1.63;0.90;;;;;;;;;;5096224;28;20016;-90
2023/08/08 13:53:38;;;;;;;2.67;1.10;;;;;;;;;;5095209;28;20047;-89
2023/08/08 13:56:04;;;;;;;2.67;1.52;;;;;;;;;;5081940;28;20532;-76
2023/08/08 13:58:29;;;;;;;1.30;1.00;;;;;;;;;;5085638;28;20103;-75
2023/08/08 14:00:56;;;;;;;3.15;1.00;;;;;;;;;;5092675;28;20082;-75
2023/08/08 14:03:21;;;;;;;3.17;1.33;;;;;;;;;;5089287;28;20498;-75
2023/08/08 14:05:47;;;;;;;2.38;0.90;;;;;;;;;;5093480;28;20020;-75
2023/08/08 14:08:12;;;;;;;1.55;0.73;;;;;;;;;;5093186;28;20024;-76
2023/08/08 14:10:37;;;;;;;1.33;0.80;;;;;;;;;;5093720;28;20077;-75
2023/08/08 14:13:03;;;;;;;0.88;0.52;;;;;;;;;;5094636;28;20125;-75
2023/08/08 14:15:29;;;;;;;1.70;0.77;;;;;;;;;;5092521;28;20494;-76
2023/08/08 14:17:54;;;;;;;1.85;0.60;;;;;;;;;;5093593;28;20486;-76
2023/08/08 14:20:20;;;;;;;2.22;0.80;;;;;;;;;;5105164;28;20024;-75
2023/08/08 14:22:47;;;;;;;2.63;0.77;;;;;;;;;;5105961;28;20062;-76
2023/08/08 14:25:13;;;;;;;5.05;0.85;;;;;;;;;;5089878;28;20027;-75
2023/08/08 14:27:38;;;;;;;3.30;0.85;;;;;;;;;;5089943;28;20021;-76
2023/08/08 14:30:04;;;;;;;1.95;0.70;;;;;;;;;;5090832;28;20387;-75
2023/08/08 14:32:29;;;;;;;2.60;0.70;;;;;;;;;;5097229;28;20054;-75
2023/08/08 14:34:55;;;;;;;2.55;0.60;;;;;;;;;;5094352;28;20024;-76
2023/08/08 14:37:21;;;;;;;2.05;0.50;;;;;;;;;;5095885;28;20384;-76